createdAt,value
2022-09-07T00:01:25.853Z,10.59
2022-09-07T00:06:31.447Z,10.84
2022-09-07T00:11:35.579Z,13.50
2022-09-07T00:16:39.981Z,13.44
2022-09-07T00:21:44.249Z,11.45
2022-09-07T00:26:48.620Z,10.14
2022-09-07T00:31:52.986Z,9.39
2022-09-07T00:36:57.492Z,10.12
2022-09-07T00:42:02.679Z,13.31
2022-09-07T00:47:24.379Z,13.96
2022-09-07T00:52:31.982Z,11.51
2022-09-07T00:57:39.728Z,10.02
2022-09-07T01:02:44.500Z,9.83
2022-09-07T01:07:48.834Z,13.02
2022-09-07T01:12:53.245Z,13.63
2022-09-07T01:18:33.088Z,11.54
2022-09-07T01:24:02.504Z,9.97
2022-09-07T01:29:53.008Z,8.98
2022-09-07T01:34:57.730Z,9.95
2022-09-07T01:40:17.025Z,12.49
2022-09-07T01:45:29.758Z,13.56
2022-09-07T01:50:42.887Z,11.89
2022-09-07T01:55:55.535Z,10.17
2022-09-07T02:01:15.903Z,9.16
2022-09-07T02:06:34.510Z,9.47
2022-09-07T02:11:47.349Z,12.46
2022-09-07T02:17:21.666Z,13.45
2022-09-07T02:22:32.603Z,11.43
2022-09-07T02:27:47.974Z,9.85
2022-09-07T02:32:52.297Z,10.25
2022-09-07T02:37:57.964Z,12.91
2022-09-07T02:43:07.197Z,13.10
2022-09-07T02:48:41.357Z,10.94
2022-09-07T02:54:01.629Z,9.45
2022-09-07T02:59:30.011Z,10.03
2022-09-07T03:05:13.007Z,12.91
2022-09-07T03:10:18.987Z,12.81
2022-09-07T03:15:27.042Z,10.79
2022-09-07T03:20:31.178Z,9.54
2022-09-07T03:25:35.521Z,10.05
2022-09-07T03:30:44.689Z,12.76
2022-09-07T03:36:00.706Z,13.06
2022-09-07T03:41:07.552Z,10.97
2022-09-07T03:46:11.993Z,9.67
2022-09-07T03:51:19.228Z,9.87
2022-09-07T03:56:26.911Z,12.44
2022-09-07T04:01:31.645Z,13.23
2022-09-07T04:06:36.152Z,11.19
2022-09-07T04:11:43.250Z,9.60
2022-09-07T04:16:49.153Z,10.01
2022-09-07T04:21:53.629Z,12.81
2022-09-07T04:26:58.000Z,12.91
2022-09-07T04:32:02.580Z,10.70
2022-09-07T04:37:07.603Z,9.38
2022-09-07T04:42:11.738Z,8.55
2022-09-07T04:47:16.307Z,9.24
2022-09-07T04:52:20.720Z,12.89
2022-09-07T04:57:27.315Z,13.67
2022-09-07T05:02:31.633Z,11.76
2022-09-07T05:07:35.843Z,10.97
2022-09-07T05:12:40.234Z,10.57
2022-09-07T05:17:44.293Z,11.26
2022-09-07T05:22:48.994Z,13.75
2022-09-07T05:27:53.813Z,13.33
2022-09-07T05:33:01.690Z,11.70
2022-09-07T05:38:05.834Z,10.87
2022-09-07T05:43:10.848Z,10.45
2022-09-07T05:48:15.422Z,11.42
2022-09-07T05:53:21.570Z,14.57
2022-09-07T05:58:26.447Z,14.98
2022-09-07T06:03:31.008Z,13.29
2022-09-07T06:08:39.394Z,12.42
2022-09-07T06:13:45.670Z,12.87
2022-09-07T06:18:51.222Z,15.54
2022-09-07T06:23:55.842Z,14.67
2022-09-07T06:29:04.839Z,13.59
2022-09-07T06:34:09.744Z,13.03
2022-09-07T06:39:14.387Z,13.95
2022-09-07T06:44:19.005Z,16.12
2022-09-07T06:49:24.212Z,15.11
2022-09-07T06:59:53.549Z,14.35
2022-09-07T07:04:57.590Z,16.68
2022-09-07T07:10:01.619Z,16.94
2022-09-07T07:15:09.770Z,16.11
2022-09-07T07:20:14.468Z,15.97
2022-09-07T07:25:19.355Z,16.09
2022-09-07T07:30:23.529Z,16.30
2022-09-07T07:35:27.618Z,16.48
2022-09-07T07:40:33.268Z,16.62
2022-09-07T07:51:11.851Z,16.97
2022-09-07T07:56:16.872Z,17.27
2022-09-07T08:01:20.987Z,17.62
2022-09-07T08:06:25.186Z,17.94
2022-09-07T08:11:31.885Z,18.20
2022-09-07T08:16:37.219Z,18.50
2022-09-07T08:21:41.282Z,18.88
2022-09-07T08:26:45.416Z,19.23
2022-09-07T08:31:49.284Z,19.56
2022-09-07T08:36:53.680Z,19.79
2022-09-07T08:42:15.010Z,19.92
2022-09-07T08:47:46.274Z,20.26
2022-09-07T08:53:15.786Z,20.69
2022-09-07T08:58:50.300Z,21.03
2022-09-07T09:10:30.479Z,21.63
2022-09-07T09:15:48.788Z,21.99
2022-09-07T09:20:57.619Z,22.05
2022-09-07T09:26:30.298Z,21.92
2022-09-07T09:31:36.493Z,21.93
2022-09-07T09:36:56.445Z,21.99
2022-09-07T09:42:24.900Z,22.23
2022-09-07T09:47:36.557Z,22.52
2022-09-07T09:52:49.245Z,22.62
2022-09-07T10:09:02.233Z,22.90
2022-09-07T10:14:18.989Z,23.02
2022-09-07T10:19:38.978Z,23.29
2022-09-07T10:24:43.601Z,23.55
2022-09-07T10:29:48.639Z,23.55
2022-09-07T10:35:23.018Z,23.43
2022-09-07T10:40:35.700Z,23.07
2022-09-07T10:46:10.534Z,23.10
2022-09-07T10:51:26.924Z,23.25
2022-09-07T10:56:40.285Z,23.47
2022-09-07T11:01:57.723Z,23.40
2022-09-07T11:07:48.181Z,23.35
2022-09-07T11:12:58.676Z,23.42
2022-09-07T11:18:20.911Z,23.66
2022-09-07T11:23:42.118Z,23.81
2022-09-07T11:35:07.257Z,24.23
2022-09-07T11:40:35.813Z,24.62
2022-09-07T11:45:50.970Z,24.85
2022-09-07T11:51:23.314Z,24.70
2022-09-07T11:56:36.600Z,24.52
2022-09-07T12:02:55.298Z,24.27
2022-09-07T12:08:25.466Z,24.36
2022-09-07T12:14:07.426Z,24.52
2022-09-07T12:19:26.072Z,24.76
2022-09-07T12:24:35.451Z,25.04
2022-09-07T12:29:45.152Z,25.44
2022-09-07T12:34:56.425Z,25.50
2022-09-07T12:40:28.800Z,25.64
2022-09-07T12:45:39.601Z,25.50
2022-09-07T13:03:03.876Z,25.76
2022-09-07T13:08:29.830Z,25.55
2022-09-07T13:19:02.979Z,25.13
2022-09-07T13:30:28.091Z,25.66
2022-09-07T13:35:32.590Z,25.61
2022-09-07T13:40:42.869Z,25.17
2022-09-07T13:45:56.078Z,25.00
2022-09-07T13:51:05.822Z,24.91
2022-09-07T13:56:20.283Z,24.49
2022-09-07T14:01:29.117Z,24.45
2022-09-07T14:06:38.846Z,24.74
2022-09-07T14:11:50.653Z,24.97
2022-09-07T14:17:00.289Z,25.00
2022-09-07T14:22:13.110Z,25.00
2022-09-07T14:27:42.581Z,25.20
2022-09-07T14:32:50.491Z,25.33
2022-09-07T14:38:00.921Z,25.77
2022-09-07T14:43:46.190Z,26.78
2022-09-07T14:48:55.339Z,28.39
2022-09-07T14:54:08.345Z,28.96
2022-09-07T14:59:49.051Z,28.74
2022-09-07T15:05:29.822Z,27.87
2022-09-07T15:10:41.660Z,26.66
2022-09-07T15:15:59.590Z,25.45
2022-09-07T15:21:03.316Z,24.34
2022-09-07T15:27:02.052Z,23.65
2022-09-07T15:31:42.240Z,23.61
2022-09-07T15:36:52.552Z,24.06
2022-09-07T15:42:00.593Z,25.28
2022-09-07T15:52:47.659Z,28.99
2022-09-07T15:58:05.174Z,29.48
2022-09-07T16:03:15.312Z,28.55
2022-09-07T16:08:32.668Z,27.30
2022-09-07T16:13:38.059Z,26.29
2022-09-07T16:18:46.603Z,26.08
2022-09-07T16:23:54.170Z,26.01
2022-09-07T16:28:58.351Z,25.50
2022-09-07T16:34:03.958Z,24.84
2022-09-07T16:39:07.862Z,24.19
2022-09-07T16:44:12.203Z,23.43
2022-09-07T16:49:17.615Z,22.56
2022-09-07T16:54:21.833Z,21.72
2022-09-07T16:59:27.364Z,20.94
2022-09-07T17:04:31.843Z,20.24
2022-09-07T17:09:36.362Z,19.60
2022-09-07T17:14:42.949Z,18.99
2022-09-07T17:19:49.221Z,18.41
2022-09-07T17:24:54.870Z,17.98
2022-09-07T17:30:03.571Z,17.62
2022-09-07T17:35:09.293Z,17.25
2022-09-07T17:40:13.179Z,16.89
2022-09-07T17:45:18.593Z,16.54
2022-09-07T17:50:22.945Z,16.21
2022-09-07T17:55:27.202Z,15.95
2022-09-07T18:00:31.774Z,15.71
2022-09-07T18:05:36.585Z,15.49
2022-09-07T18:16:34.992Z,15.07
2022-09-07T18:21:46.872Z,14.88
2022-09-07T18:26:55.932Z,14.67
2022-09-07T18:32:01.711Z,14.37
2022-09-07T18:37:07.062Z,14.08
2022-09-07T18:42:13.209Z,13.90
2022-09-07T18:47:23.326Z,13.78
2022-09-07T18:57:58.489Z,13.46
2022-09-07T19:03:04.033Z,13.28
2022-09-07T19:08:09.121Z,13.19
2022-09-07T19:13:14.538Z,14.01
2022-09-07T19:18:18.879Z,16.60
2022-09-07T19:23:23.029Z,17.80
2022-09-07T19:28:27.724Z,17.14
2022-09-07T19:33:36.316Z,15.57
2022-09-07T19:38:42.482Z,14.68
2022-09-07T19:43:47.939Z,14.10
2022-09-07T19:48:52.179Z,13.63
2022-09-07T19:53:55.935Z,13.27
2022-09-07T19:58:59.949Z,12.94
2022-09-07T20:04:08.388Z,12.65
2022-09-07T20:09:16.830Z,12.42
2022-09-07T20:14:21.169Z,12.24
2022-09-07T20:19:25.292Z,12.08
2022-09-07T20:24:29.840Z,11.91
2022-09-07T20:29:36.632Z,12.66
2022-09-07T20:34:41.023Z,15.30
2022-09-07T20:39:45.723Z,16.35
2022-09-07T20:44:51.426Z,14.74
2022-09-07T20:49:55.842Z,13.68
2022-09-07T20:55:00.488Z,13.06
2022-09-07T21:00:06.978Z,12.61
2022-09-07T21:05:11.224Z,12.24
2022-09-07T21:10:15.146Z,11.99
2022-09-07T21:15:20.391Z,11.77
2022-09-07T21:20:25.168Z,12.40
2022-09-07T21:25:28.793Z,14.97
2022-09-07T21:30:32.303Z,15.71
2022-09-07T21:35:35.926Z,14.18
2022-09-07T21:40:42.868Z,13.20
2022-09-07T21:45:46.829Z,12.57
2022-09-07T21:50:57.853Z,12.10
2022-09-07T21:56:05.781Z,11.72
2022-09-07T22:01:21.355Z,12.31
2022-09-07T22:06:27.762Z,14.88
2022-09-07T22:11:32.330Z,15.59
2022-09-07T22:16:36.242Z,14.02
2022-09-07T22:21:39.966Z,12.99
2022-09-07T22:26:43.908Z,12.34
2022-09-07T22:31:49.338Z,11.81
2022-09-07T22:36:54.029Z,11.37
2022-09-07T22:41:57.539Z,12.04
2022-09-07T22:47:02.846Z,14.69
2022-09-07T22:52:07.138Z,16.01
2022-09-07T22:57:10.920Z,14.81
2022-09-07T23:02:14.592Z,13.30
2022-09-07T23:07:19.086Z,12.44
2022-09-07T23:12:23.279Z,11.79
2022-09-07T23:17:27.104Z,12.15
2022-09-07T23:22:32.347Z,14.39
2022-09-07T23:27:36.935Z,15.46
2022-09-07T23:32:41.068Z,15.55
2022-09-07T23:37:45.289Z,13.81
2022-09-07T23:42:49.852Z,12.64
2022-09-07T23:47:54.461Z,11.88
2022-09-07T23:52:58.316Z,11.94
2022-09-07T23:58:02.343Z,14.38
